TimeAKST,TemperatureF,Dew PointF,Humidity,Sea Level PressureIn,VisibilityMPH,Wind Direction,Wind SpeedMPH,Gust SpeedMPH,PrecipitationIn,Events,Conditions,WindDirDegrees,DateUTC
12:54 AM,7.0,-6.0,55,30.42,10.0,NW,17.3,27.6,N/A,,Clear,310,2013-12-18 09:54:00
1:54 AM,6.1,-6.0,58,30.43,10.0,NW,17.3,27.6,N/A,,Clear,310,2013-12-18 10:54:00
2:54 AM,7.0,-6.0,55,30.44,10.0,NW,17.3,25.3,N/A,,Clear,320,2013-12-18 11:54:00
3:54 AM,9.0,-7.1,48,30.45,10.0,NNW,19.6,28.8,N/A,,Clear,330,2013-12-18 12:54:00
4:54 AM,7.0,-6.0,55,30.45,10.0,NW,18.4,27.6,N/A,,Clear,310,2013-12-18 13:54:00
5:54 AM,6.1,-7.1,55,30.47,10.0,NW,16.1,25.3,N/A,,Clear,320,2013-12-18 14:54:00
6:54 AM,7.0,-6.0,55,30.48,10.0,WNW,12.7,23.0,N/A,,Clear,300,2013-12-18 15:54:00
7:54 AM,1.0,-7.1,69,30.48,10.0,WNW,17.3,-,N/A,,Clear,290,2013-12-18 16:54:00
8:54 AM,5.0,-7.1,58,30.48,10.0,NW,12.7,21.9,N/A,,Clear,310,2013-12-18 17:54:00
9:54 AM,1.0,-7.1,69,30.50,10.0,WNW,13.8,-,N/A,,Clear,290,2013-12-18 18:54:00
10:54 AM,3.9,-6.0,64,30.48,10.0,WNW,19.6,-,N/A,,Clear,300,2013-12-18 19:54:00
11:54 AM,5.0,-6.0,61,30.52,10.0,WNW,17.3,-,N/A,,Clear,290,2013-12-18 20:54:00
12:54 PM,6.1,-6.0,58,30.50,10.0,WNW,13.8,-,N/A,,Clear,300,2013-12-18 21:54:00
1:54 PM,1.0,-6.0,72,30.49,10.0,WNW,13.8,-,N/A,,Clear,290,2013-12-18 22:54:00
2:54 PM,1.0,-5.1,75,30.51,10.0,WNW,13.8,-,N/A,,Clear,290,2013-12-18 23:54:00
3:54 PM,3.0,-5.1,69,30.47,10.0,WNW,11.5,-,N/A,,Clear,290,2013-12-19 00:54:00
4:54 PM,3.9,-5.1,66,30.47,10.0,WNW,13.8,-,N/A,,Clear,290,2013-12-19 01:54:00
5:54 PM,-0.0,-6.0,76,30.49,10.0,West,10.4,-,N/A,,Clear,280,2013-12-19 02:54:00
6:54 PM,3.0,-5.1,69,30.46,10.0,WNW,10.4,-,N/A,,Clear,290,2013-12-19 03:54:00
7:54 PM,1.0,-5.1,75,30.44,10.0,WNW,13.8,-,N/A,,Clear,300,2013-12-19 04:54:00
8:54 PM,-0.9,-6.0,79,30.42,10.0,WNW,10.4,-,N/A,,Clear,300,2013-12-19 05:54:00
9:40 PM,3.0,-4.0,73,30.38,10.0,WNW,15.0,-,N/A,,Mostly Cloudy,290,2013-12-19 06:40:00
9:54 PM,-0.0,-6.0,76,30.39,10.0,WNW,12.7,-,N/A,,Overcast,290,2013-12-19 06:54:00
10:28 PM,-0.0,-5.1,79,30.36,10.0,WNW,10.4,-,0.00,Snow,Light Snow,290,2013-12-19 07:28:00
10:54 PM,3.9,-2.9,73,30.35,4.0,WNW,12.7,-,0.00,Snow,Light Snow,290,2013-12-19 07:54:00
11:06 PM,1.9,-4.0,76,30.33,2.5,WNW,12.7,-,0.00,Snow,Light Snow,290,2013-12-19 08:06:00
11:20 PM,1.9,-4.0,76,30.32,3.0,WNW,12.7,-,0.00,Snow,Light Snow,290,2013-12-19 08:20:00
11:30 PM,-0.0,-5.1,79,30.33,2.0,WNW,15.0,-,0.00,Snow,Light Snow,290,2013-12-19 08:30:00
11:54 PM,1.0,-4.0,79,30.34,2.5,WNW,16.1,-,0.00,Snow,Light Snow,290,2013-12-19 08:54:00